sensor_id;sensor_type;location;lat;lon;timestamp;pressure;altitude;pressure_sealevel;temperature;humidity
31483;BME280;18103;52.246;8.052;2022-09-27T00:00:27;97960.41;;;11.44;100.00
31483;BME280;18103;52.246;8.052;2022-09-27T00:02:52;97965.97;;;11.43;100.00
31483;BME280;18103;52.246;8.052;2022-09-27T00:05:18;97971.78;;;11.40;100.00
31483;BME280;18103;52.246;8.052;2022-09-27T00:07:44;97974.56;;;11.45;100.00
31483;BME280;18103;52.246;8.052;2022-09-27T00:10:09;97964.59;;;11.40;100.00
31483;BME280;18103;52.246;8.052;2022-09-27T00:12:35;97969.34;;;11.38;100.00
31483;BME280;18103;52.246;8.052;2022-09-27T00:15:00;97969.69;;;11.42;100.00
31483;BME280;18103;52.246;8.052;2022-09-27T00:17:27;97976.31;;;11.39;100.00
31483;BME280;18103;52.246;8.052;2022-09-27T00:19:52;97970.28;;;11.32;100.00
31483;BME280;18103;52.246;8.052;2022-09-27T00:22:21;97973.75;;;11.32;100.00
31483;BME280;18103;52.246;8.052;2022-09-27T00:24:47;97973.16;;;11.30;100.00
31483;BME280;18103;52.246;8.052;2022-09-27T00:27:12;97971.16;;;11.26;100.00
31483;BME280;18103;52.246;8.052;2022-09-27T00:29:38;97975.78;;;11.19;100.00
31483;BME280;18103;52.246;8.052;2022-09-27T00:32:03;97978.34;;;11.14;100.00
31483;BME280;18103;52.246;8.052;2022-09-27T00:34:28;97973.94;;;11.19;100.00
31483;BME280;18103;52.246;8.052;2022-09-27T00:36:54;97967.19;;;11.17;100.00
31483;BME280;18103;52.246;8.052;2022-09-27T00:39:20;97969.16;;;11.10;100.00
31483;BME280;18103;52.246;8.052;2022-09-27T00:41:45;97976.25;;;11.16;100.00
31483;BME280;18103;52.246;8.052;2022-09-27T00:46:53;97983.53;;;11.09;100.00
31483;BME280;18103;52.246;8.052;2022-09-27T00:49:29;97973.19;;;11.01;100.00
31483;BME280;18103;52.246;8.052;2022-09-27T00:52:06;97977.47;;;11.02;100.00
31483;BME280;18103;52.246;8.052;2022-09-27T00:54:35;97981.78;;;11.03;100.00
31483;BME280;18103;52.246;8.052;2022-09-27T00:57:06;97980.97;;;11.02;100.00
31483;BME280;18103;52.246;8.052;2022-09-27T00:59:54;97986.25;;;10.90;100.00
31483;BME280;18103;52.246;8.052;2022-09-27T01:02:23;97976.16;;;10.92;100.00
31483;BME280;18103;52.246;8.052;2022-09-27T01:04:48;97974.09;;;10.94;100.00
31483;BME280;18103;52.246;8.052;2022-09-27T01:07:15;97978.63;;;10.94;100.00
31483;BME280;18103;52.246;8.052;2022-09-27T01:09:41;97981.66;;;10.98;100.00
31483;BME280;18103;52.246;8.052;2022-09-27T01:25:08;97987.31;;;10.89;100.00
31483;BME280;18103;52.246;8.052;2022-09-27T01:28:11;97999.81;;;10.89;100.00
31483;BME280;18103;52.246;8.052;2022-09-27T01:30:53;97991.00;;;10.88;100.00
31483;BME280;18103;52.246;8.052;2022-09-27T01:36:45;97991.88;;;10.82;100.00
31483;BME280;18103;52.246;8.052;2022-09-27T01:42:36;97995.59;;;10.81;100.00
31483;BME280;18103;52.246;8.052;2022-09-27T01:45:20;97996.34;;;10.88;100.00
31483;BME280;18103;52.246;8.052;2022-09-27T01:47:51;97996.06;;;10.78;100.00
31483;BME280;18103;52.246;8.052;2022-09-27T01:50:28;97996.78;;;10.85;100.00
31483;BME280;18103;52.246;8.052;2022-09-27T01:53:00;98002.03;;;10.92;100.00
31483;BME280;18103;52.246;8.052;2022-09-27T01:55:31;97998.13;;;10.76;100.00
31483;BME280;18103;52.246;8.052;2022-09-27T01:58:03;98004.66;;;10.80;100.00
31483;BME280;18103;52.246;8.052;2022-09-27T02:00:31;98001.16;;;10.80;100.00
31483;BME280;18103;52.246;8.052;2022-09-27T02:03:03;98000.47;;;10.84;100.00
31483;BME280;18103;52.246;8.052;2022-09-27T02:06:00;98004.19;;;10.83;100.00
31483;BME280;18103;52.246;8.052;2022-09-27T02:08:37;97999.06;;;10.82;100.00
31483;BME280;18103;52.246;8.052;2022-09-27T02:11:09;97999.31;;;10.80;100.00
31483;BME280;18103;52.246;8.052;2022-09-27T02:16:15;98001.41;;;10.78;100.00
31483;BME280;18103;52.246;8.052;2022-09-27T02:21:17;97998.50;;;10.80;100.00
31483;BME280;18103;52.246;8.052;2022-09-27T02:23:49;98005.47;;;10.81;100.00
31483;BME280;18103;52.246;8.052;2022-09-27T02:26:26;97997.59;;;10.86;100.00
31483;BME280;18103;52.246;8.052;2022-09-27T02:29:26;98003.38;;;10.83;100.00
31483;BME280;18103;52.246;8.052;2022-09-27T02:31:55;98000.34;;;10.79;100.00
31483;BME280;18103;52.246;8.052;2022-09-27T02:34:28;98006.41;;;10.86;100.00
31483;BME280;18103;52.246;8.052;2022-09-27T02:36:55;98008.34;;;10.79;100.00
31483;BME280;18103;52.246;8.052;2022-09-27T02:39:24;98009.81;;;10.75;100.00
31483;BME280;18103;52.246;8.052;2022-09-27T02:41:50;98016.34;;;10.79;100.00
31483;BME280;18103;52.246;8.052;2022-09-27T02:44:16;98005.41;;;10.69;100.00
31483;BME280;18103;52.246;8.052;2022-09-27T02:47:37;98008.66;;;10.71;100.00
31483;BME280;18103;52.246;8.052;2022-09-27T02:55:18;98003.41;;;10.65;100.00
31483;BME280;18103;52.246;8.052;2022-09-27T02:59:07;98004.81;;;10.67;100.00
31483;BME280;18103;52.246;8.052;2022-09-27T03:03:38;97997.84;;;10.66;100.00
31483;BME280;18103;52.246;8.052;2022-09-27T03:06:10;98008.16;;;10.63;100.00
31483;BME280;18103;52.246;8.052;2022-09-27T03:08:37;98007.34;;;10.62;100.00
31483;BME280;18103;52.246;8.052;2022-09-27T03:11:03;97997.13;;;10.59;100.00
31483;BME280;18103;52.246;8.052;2022-09-27T03:13:28;97993.50;;;10.53;100.00
31483;BME280;18103;52.246;8.052;2022-09-27T03:15:54;97998.44;;;10.50;100.00
31483;BME280;18103;52.246;8.052;2022-09-27T03:18:19;98014.31;;;10.45;100.00
31483;BME280;18103;52.246;8.052;2022-09-27T03:20:45;98007.88;;;10.52;100.00
31483;BME280;18103;52.246;8.052;2022-09-27T03:23:11;98011.44;;;10.46;100.00
31483;BME280;18103;52.246;8.052;2022-09-27T03:25:36;98017.41;;;10.42;100.00
31483;BME280;18103;52.246;8.052;2022-09-27T03:28:02;98009.13;;;10.50;100.00
31483;BME280;18103;52.246;8.052;2022-09-27T03:30:27;98011.47;;;10.40;100.00
31483;BME280;18103;52.246;8.052;2022-09-27T03:32:53;98018.31;;;10.36;100.00
31483;BME280;18103;52.246;8.052;2022-09-27T03:35:18;98012.97;;;10.36;100.00
31483;BME280;18103;52.246;8.052;2022-09-27T03:37:43;98011.94;;;10.37;100.00
31483;BME280;18103;52.246;8.052;2022-09-27T03:40:11;98016.25;;;10.38;100.00
31483;BME280;18103;52.246;8.052;2022-09-27T03:42:37;98011.13;;;10.36;100.00
31483;BME280;18103;52.246;8.052;2022-09-27T03:45:02;98012.75;;;10.37;100.00
31483;BME280;18103;52.246;8.052;2022-09-27T03:47:28;98017.28;;;10.37;100.00
31483;BME280;18103;52.246;8.052;2022-09-27T03:49:53;98015.03;;;10.34;100.00
31483;BME280;18103;52.246;8.052;2022-09-27T03:52:19;98015.94;;;10.28;100.00
31483;BME280;18103;52.246;8.052;2022-09-27T03:54:44;98013.47;;;10.26;100.00
31483;BME280;18103;52.246;8.052;2022-09-27T03:57:09;98005.72;;;10.25;100.00
31483;BME280;18103;52.246;8.052;2022-09-27T03:59:35;98009.41;;;10.24;100.00
31483;BME280;18103;52.246;8.052;2022-09-27T04:02:00;98022.13;;;10.21;100.00
31483;BME280;18103;52.246;8.052;2022-09-27T04:04:26;98030.28;;;10.27;100.00
31483;BME280;18103;52.246;8.052;2022-09-27T04:06:51;98021.75;;;10.18;100.00
31483;BME280;18103;52.246;8.052;2022-09-27T04:09:16;98023.31;;;10.26;100.00
31483;BME280;18103;52.246;8.052;2022-09-27T04:11:42;98030.28;;;10.27;100.00
31483;BME280;18103;52.246;8.052;2022-09-27T04:14:07;98031.09;;;10.27;100.00
31483;BME280;18103;52.246;8.052;2022-09-27T04:16:33;98030.63;;;10.30;100.00
31483;BME280;18103;52.246;8.052;2022-09-27T04:18:59;98025.56;;;10.29;100.00
31483;BME280;18103;52.246;8.052;2022-09-27T04:21:25;98033.97;;;10.26;100.00
31483;BME280;18103;52.246;8.052;2022-09-27T04:23:51;98020.44;;;10.27;100.00
31483;BME280;18103;52.246;8.052;2022-09-27T04:26:16;98025.59;;;10.22;100.00
31483;BME280;18103;52.246;8.052;2022-09-27T04:28:41;98029.13;;;10.16;100.00
31483;BME280;18103;52.246;8.052;2022-09-27T04:31:07;98033.50;;;10.10;100.00
31483;BME280;18103;52.246;8.052;2022-09-27T04:33:35;98045.16;;;10.09;100.00
31483;BME280;18103;52.246;8.052;2022-09-27T04:36:00;98049.47;;;10.10;100.00
31483;BME280;18103;52.246;8.052;2022-09-27T04:38:44;98045.59;;;10.06;100.00
31483;BME280;18103;52.246;8.052;2022-09-27T04:41:09;98046.47;;;10.00;100.00
31483;BME280;18103;52.246;8.052;2022-09-27T04:43:35;98054.00;;;10.03;100.00
31483;BME280;18103;52.246;8.052;2022-09-27T04:46:00;98046.69;;;9.99;100.00
31483;BME280;18103;52.246;8.052;2022-09-27T04:48:26;98053.66;;;10.00;100.00
31483;BME280;18103;52.246;8.052;2022-09-27T04:50:55;98052.97;;;10.04;100.00
31483;BME280;18103;52.246;8.052;2022-09-27T04:53:21;98052.44;;;9.96;100.00
31483;BME280;18103;52.246;8.052;2022-09-27T04:55:47;98052.63;;;10.01;100.00
31483;BME280;18103;52.246;8.052;2022-09-27T04:58:14;98057.63;;;9.91;100.00
31483;BME280;18103;52.246;8.052;2022-09-27T05:00:40;98070.72;;;9.92;100.00
31483;BME280;18103;52.246;8.052;2022-09-27T05:03:07;98063.34;;;9.94;100.00
31483;BME280;18103;52.246;8.052;2022-09-27T05:05:32;98075.38;;;9.97;100.00
31483;BME280;18103;52.246;8.052;2022-09-27T05:07:58;98068.91;;;9.86;100.00
31483;BME280;18103;52.246;8.052;2022-09-27T05:10:24;98065.59;;;9.91;100.00
31483;BME280;18103;52.246;8.052;2022-09-27T05:12:49;98067.94;;;9.80;100.00
31483;BME280;18103;52.246;8.052;2022-09-27T05:15:14;98073.25;;;9.80;100.00
31483;BME280;18103;52.246;8.052;2022-09-27T05:17:40;98070.19;;;9.83;100.00
31483;BME280;18103;52.246;8.052;2022-09-27T05:20:05;98072.84;;;9.83;100.00
31483;BME280;18103;52.246;8.052;2022-09-27T05:22:31;98079.81;;;9.78;100.00
31483;BME280;18103;52.246;8.052;2022-09-27T05:24:56;98076.59;;;9.76;100.00
31483;BME280;18103;52.246;8.052;2022-09-27T05:27:21;98079.25;;;9.76;100.00
31483;BME280;18103;52.246;8.052;2022-09-27T05:29:47;98077.41;;;9.76;100.00
31483;BME280;18103;52.246;8.052;2022-09-27T05:32:13;98084.03;;;9.67;100.00
31483;BME280;18103;52.246;8.052;2022-09-27T05:34:39;98086.88;;;9.66;100.00
31483;BME280;18103;52.246;8.052;2022-09-27T05:37:04;98095.47;;;9.68;100.00
31483;BME280;18103;52.246;8.052;2022-09-27T05:39:30;98096.16;;;9.57;100.00
31483;BME280;18103;52.246;8.052;2022-09-27T05:41:55;98095.94;;;9.58;100.00
31483;BME280;18103;52.246;8.052;2022-09-27T05:44:21;98103.13;;;9.58;100.00
31483;BME280;18103;52.246;8.052;2022-09-27T05:46:47;98102.50;;;9.56;100.00
31483;BME280;18103;52.246;8.052;2022-09-27T05:49:12;98098.00;;;9.56;100.00
31483;BME280;18103;52.246;8.052;2022-09-27T05:51:37;98102.09;;;9.59;100.00
31483;BME280;18103;52.246;8.052;2022-09-27T05:54:03;98097.59;;;9.59;100.00
31483;BME280;18103;52.246;8.052;2022-09-27T05:56:28;98105.94;;;9.63;100.00
31483;BME280;18103;52.246;8.052;2022-09-27T05:58:53;98092.53;;;9.51;100.00
31483;BME280;18103;52.246;8.052;2022-09-27T06:01:19;98109.47;;;9.57;100.00
31483;BME280;18103;52.246;8.052;2022-09-27T06:03:47;98101.63;;;9.62;100.00
31483;BME280;18103;52.246;8.052;2022-09-27T06:06:12;98110.31;;;9.51;100.00
31483;BME280;18103;52.246;8.052;2022-09-27T06:08:39;98113.16;;;9.56;100.00
31483;BME280;18103;52.246;8.052;2022-09-27T06:11:07;98121.53;;;9.53;100.00
31483;BME280;18103;52.246;8.052;2022-09-27T06:13:34;98114.84;;;9.50;100.00
31483;BME280;18103;52.246;8.052;2022-09-27T06:16:04;98120.16;;;9.43;100.00
31483;BME280;18103;52.246;8.052;2022-09-27T06:18:30;98116.47;;;9.44;100.00
31483;BME280;18103;52.246;8.052;2022-09-27T06:20:58;98122.66;;;9.38;100.00
31483;BME280;18103;52.246;8.052;2022-09-27T06:23:23;98119.59;;;9.41;100.00
31483;BME280;18103;52.246;8.052;2022-09-27T06:25:49;98118.47;;;9.56;100.00
31483;BME280;18103;52.246;8.052;2022-09-27T06:28:15;98129.50;;;9.59;100.00
31483;BME280;18103;52.246;8.052;2022-09-27T06:30:46;98123.78;;;9.56;100.00
31483;BME280;18103;52.246;8.052;2022-09-27T06:33:14;98130.06;;;9.68;100.00
31483;BME280;18103;52.246;8.052;2022-09-27T06:35:40;98127.41;;;9.68;100.00
31483;BME280;18103;52.246;8.052;2022-09-27T06:38:12;98131.44;;;9.77;100.00
31483;BME280;18103;52.246;8.052;2022-09-27T06:40:38;98138.38;;;9.78;100.00
31483;BME280;18103;52.246;8.052;2022-09-27T06:43:05;98142.19;;;9.89;100.00
31483;BME280;18103;52.246;8.052;2022-09-27T06:45:32;98151.00;;;9.89;100.00
31483;BME280;18103;52.246;8.052;2022-09-27T06:47:58;98147.56;;;9.82;100.00
31483;BME280;18103;52.246;8.052;2022-09-27T06:50:30;98154.53;;;9.83;100.00
31483;BME280;18103;52.246;8.052;2022-09-27T06:52:57;98161.28;;;9.79;100.00
31483;BME280;18103;52.246;8.052;2022-09-27T06:55:22;98163.38;;;9.77;100.00
31483;BME280;18103;52.246;8.052;2022-09-27T06:57:48;98159.50;;;9.73;100.00
31483;BME280;18103;52.246;8.052;2022-09-27T07:00:31;98172.97;;;9.78;100.00
31483;BME280;18103;52.246;8.052;2022-09-27T07:02:57;98173.22;;;9.70;100.00
31483;BME280;18103;52.246;8.052;2022-09-27T07:05:27;98167.47;;;9.73;100.00
31483;BME280;18103;52.246;8.052;2022-09-27T07:07:54;98170.34;;;9.71;100.00
31483;BME280;18103;52.246;8.052;2022-09-27T07:10:25;98167.00;;;9.82;100.00
31483;BME280;18103;52.246;8.052;2022-09-27T07:12:51;98172.69;;;9.86;100.00
31483;BME280;18103;52.246;8.052;2022-09-27T07:15:19;98177.19;;;9.92;100.00
31483;BME280;18103;52.246;8.052;2022-09-27T07:17:55;98177.00;;;9.87;100.00
31483;BME280;18103;52.246;8.052;2022-09-27T07:20:21;98189.28;;;9.88;100.00
31483;BME280;18103;52.246;8.052;2022-09-27T07:22:46;98190.72;;;9.91;100.00
31483;BME280;18103;52.246;8.052;2022-09-27T07:25:11;98184.91;;;10.00;100.00
31483;BME280;18103;52.246;8.052;2022-09-27T07:27:39;98190.19;;;10.07;100.00
31483;BME280;18103;52.246;8.052;2022-09-27T07:30:09;98195.91;;;10.10;100.00
31483;BME280;18103;52.246;8.052;2022-09-27T07:32:34;98202.06;;;10.11;100.00
31483;BME280;18103;52.246;8.052;2022-09-27T07:35:02;98194.06;;;10.11;100.00
31483;BME280;18103;52.246;8.052;2022-09-27T07:37:27;98198.72;;;10.15;100.00
31483;BME280;18103;52.246;8.052;2022-09-27T07:39:53;98205.69;;;10.16;100.00
31483;BME280;18103;52.246;8.052;2022-09-27T07:42:18;98204.06;;;10.15;100.00
31483;BME280;18103;52.246;8.052;2022-09-27T07:44:44;98199.97;;;10.19;100.00
31483;BME280;18103;52.246;8.052;2022-09-27T07:47:10;98211.44;;;10.20;100.00
31483;BME280;18103;52.246;8.052;2022-09-27T07:49:35;98202.38;;;10.28;100.00
31483;BME280;18103;52.246;8.052;2022-09-27T07:52:01;98203.13;;;10.35;100.00
31483;BME280;18103;52.246;8.052;2022-09-27T07:54:26;98212.91;;;10.41;100.00
31483;BME280;18103;52.246;8.052;2022-09-27T07:56:52;98218.56;;;10.51;100.00
31483;BME280;18103;52.246;8.052;2022-09-27T07:59:17;98207.94;;;10.69;100.00
31483;BME280;18103;52.246;8.052;2022-09-27T08:01:43;98207.25;;;10.80;100.00
31483;BME280;18103;52.246;8.052;2022-09-27T08:04:10;98219.16;;;10.78;100.00
31483;BME280;18103;52.246;8.052;2022-09-27T08:06:36;98209.69;;;10.57;100.00
31483;BME280;18103;52.246;8.052;2022-09-27T08:09:05;98220.06;;;10.65;100.00
31483;BME280;18103;52.246;8.052;2022-09-27T08:11:30;98220.66;;;10.67;100.00
31483;BME280;18103;52.246;8.052;2022-09-27T08:13:55;98224.84;;;10.81;100.00
31483;BME280;18103;52.246;8.052;2022-09-27T08:16:21;98239.66;;;10.77;100.00
31483;BME280;18103;52.246;8.052;2022-09-27T08:18:46;98226.59;;;10.69;99.37
31483;BME280;18103;52.246;8.052;2022-09-27T08:21:12;98232.63;;;10.83;100.00
31483;BME280;18103;52.246;8.052;2022-09-27T08:23:37;98242.19;;;10.90;100.00
31483;BME280;18103;52.246;8.052;2022-09-27T08:26:02;98240.84;;;10.81;99.65
31483;BME280;18103;52.246;8.052;2022-09-27T08:28:28;98241.44;;;10.83;100.00
31483;BME280;18103;52.246;8.052;2022-09-27T08:30:56;98240.78;;;10.88;99.63
31483;BME280;18103;52.246;8.052;2022-09-27T08:33:23;98248.00;;;11.06;99.97
31483;BME280;18103;52.246;8.052;2022-09-27T08:35:50;98252.63;;;10.92;99.17
31483;BME280;18103;52.246;8.052;2022-09-27T08:38:15;98254.28;;;10.93;98.64
31483;BME280;18103;52.246;8.052;2022-09-27T08:43:40;98257.97;;;10.92;97.98
31483;BME280;18103;52.246;8.052;2022-09-27T08:49:28;98260.69;;;10.85;98.10
31483;BME280;18103;52.246;8.052;2022-09-27T08:51:56;98259.13;;;10.78;97.32
31483;BME280;18103;52.246;8.052;2022-09-27T08:54:25;98265.50;;;10.77;97.20
31483;BME280;18103;52.246;8.052;2022-09-27T08:56:58;98260.97;;;10.77;96.65
31483;BME280;18103;52.246;8.052;2022-09-27T08:59:31;98274.63;;;10.87;97.38
31483;BME280;18103;52.246;8.052;2022-09-27T09:01:58;98267.06;;;10.84;97.24
31483;BME280;18103;52.246;8.052;2022-09-27T09:07:04;98264.28;;;10.73;96.62
31483;BME280;18103;52.246;8.052;2022-09-27T09:18:18;98269.78;;;11.03;97.00
31483;BME280;18103;52.246;8.052;2022-09-27T09:25:59;98266.97;;;11.34;95.84
31483;BME280;18103;52.246;8.052;2022-09-27T09:28:34;98263.44;;;11.58;94.56
31483;BME280;18103;52.246;8.052;2022-09-27T09:33:40;98256.72;;;11.86;93.44
31483;BME280;18103;52.246;8.052;2022-09-27T09:36:14;98253.47;;;12.02;93.36
31483;BME280;18103;52.246;8.052;2022-09-27T09:38:51;98257.41;;;12.11;91.80
31483;BME280;18103;52.246;8.052;2022-09-27T09:49:00;98254.22;;;12.32;88.68
31483;BME280;18103;52.246;8.052;2022-09-27T09:51:35;98250.47;;;12.10;90.36
31483;BME280;18103;52.246;8.052;2022-09-27T09:54:07;98259.81;;;12.31;90.55
31483;BME280;18103;52.246;8.052;2022-09-27T09:56:43;98252.34;;;12.21;90.04
31483;BME280;18103;52.246;8.052;2022-09-27T10:01:48;98257.47;;;12.23;90.24
31483;BME280;18103;52.246;8.052;2022-09-27T10:04:23;98254.88;;;12.16;89.14
31483;BME280;18103;52.246;8.052;2022-09-27T10:06:50;98253.97;;;12.22;89.58
31483;BME280;18103;52.246;8.052;2022-09-27T10:09:20;98252.16;;;12.34;88.57
31483;BME280;18103;52.246;8.052;2022-09-27T10:11:46;98253.03;;;12.17;88.64
31483;BME280;18103;52.246;8.052;2022-09-27T10:14:18;98255.66;;;12.46;86.17
31483;BME280;18103;52.246;8.052;2022-09-27T10:16:49;98248.31;;;12.30;87.84
31483;BME280;18103;52.246;8.052;2022-09-27T10:19:24;98250.06;;;12.36;87.88
31483;BME280;18103;52.246;8.052;2022-09-27T10:21:52;98245.59;;;12.60;87.88
31483;BME280;18103;52.246;8.052;2022-09-27T10:24:20;98254.31;;;12.79;86.63
31483;BME280;18103;52.246;8.052;2022-09-27T10:26:49;98242.25;;;12.88;84.04
31483;BME280;18103;52.246;8.052;2022-09-27T10:29:30;98247.78;;;12.75;85.52
31483;BME280;18103;52.246;8.052;2022-09-27T10:31:58;98243.97;;;12.82;84.75
31483;BME280;18103;52.246;8.052;2022-09-27T10:34:27;98240.72;;;13.04;84.76
31483;BME280;18103;52.246;8.052;2022-09-27T10:37:03;98247.56;;;13.11;85.84
31483;BME280;18103;52.246;8.052;2022-09-27T10:39:29;98246.28;;;12.91;85.43
31483;BME280;18103;52.246;8.052;2022-09-27T10:41:55;98251.63;;;12.67;85.04
31483;BME280;18103;52.246;8.052;2022-09-27T10:44:28;98244.53;;;12.73;85.25
31483;BME280;18103;52.246;8.052;2022-09-27T10:47:07;98251.75;;;12.61;84.77
31483;BME280;18103;52.246;8.052;2022-09-27T10:49:41;98245.69;;;12.54;84.43
31483;BME280;18103;52.246;8.052;2022-09-27T10:52:14;98247.88;;;12.45;84.19
31483;BME280;18103;52.246;8.052;2022-09-27T10:54:41;98242.44;;;12.52;84.36
31483;BME280;18103;52.246;8.052;2022-09-27T10:59:40;98245.69;;;12.54;85.60
31483;BME280;18103;52.246;8.052;2022-09-27T11:02:20;98250.81;;;12.67;84.85
31483;BME280;18103;52.246;8.052;2022-09-27T11:07:36;98241.63;;;13.09;82.40
31483;BME280;18103;52.246;8.052;2022-09-27T11:10:35;98249.91;;;12.96;83.07
31483;BME280;18103;52.246;8.052;2022-09-27T11:16:19;98247.56;;;13.11;82.15
31483;BME280;18103;52.246;8.052;2022-09-27T11:24:24;98241.88;;;12.96;81.72
31483;BME280;18103;52.246;8.052;2022-09-27T11:30:08;98247.94;;;13.03;80.45
31483;BME280;18103;52.246;8.052;2022-09-27T11:35:57;98249.22;;;13.24;81.21
31483;BME280;18103;52.246;8.052;2022-09-27T11:39:08;98249.78;;;13.26;81.35
31483;BME280;18103;52.246;8.052;2022-09-27T11:55:45;98229.41;;;13.37;75.64
31483;BME280;18103;52.246;8.052;2022-09-27T12:01:02;98239.69;;;13.16;77.73
31483;BME280;18103;52.246;8.052;2022-09-27T12:06:24;98237.59;;;13.18;76.31
31483;BME280;18103;52.246;8.052;2022-09-27T12:09:07;98237.13;;;13.21;74.92
31483;BME280;18103;52.246;8.052;2022-09-27T12:11:50;98242.91;;;13.07;74.66
31483;BME280;18103;52.246;8.052;2022-09-27T12:14:34;98231.88;;;13.03;74.33
31483;BME280;18103;52.246;8.052;2022-09-27T12:17:03;98230.00;;;12.92;77.05
31483;BME280;18103;52.246;8.052;2022-09-27T12:19:37;98240.38;;;12.77;80.05
31483;BME280;18103;52.246;8.052;2022-09-27T12:22:06;98256.72;;;12.57;82.35
31483;BME280;18103;52.246;8.052;2022-09-27T12:24:34;98272.63;;;11.81;83.23
31483;BME280;18103;52.246;8.052;2022-09-27T12:27:07;98278.91;;;11.68;85.36
31483;BME280;18103;52.246;8.052;2022-09-27T12:29:36;98284.31;;;11.61;86.95
31483;BME280;18103;52.246;8.052;2022-09-27T12:32:17;98290.41;;;11.50;88.14
31483;BME280;18103;52.246;8.052;2022-09-27T12:35:07;98298.19;;;11.70;88.58
31483;BME280;18103;52.246;8.052;2022-09-27T12:37:42;98301.53;;;11.65;88.22
31483;BME280;18103;52.246;8.052;2022-09-27T12:43:03;98281.22;;;11.46;89.50
31483;BME280;18103;52.246;8.052;2022-09-27T12:51:10;98297.22;;;11.46;89.44
31483;BME280;18103;52.246;8.052;2022-09-27T12:59:34;98294.91;;;11.68;89.16
31483;BME280;18103;52.246;8.052;2022-09-27T13:04:56;98287.44;;;11.77;90.28
31483;BME280;18103;52.246;8.052;2022-09-27T13:10:25;98285.97;;;11.62;91.56
31483;BME280;18103;52.246;8.052;2022-09-27T13:12:56;98283.88;;;11.64;92.63
31483;BME280;18103;52.246;8.052;2022-09-27T13:15:32;98286.69;;;11.69;92.16
31483;BME280;18103;52.246;8.052;2022-09-27T13:17:59;98273.34;;;11.69;93.46
31483;BME280;18103;52.246;8.052;2022-09-27T13:25:51;98271.59;;;11.82;92.68
31483;BME280;18103;52.246;8.052;2022-09-27T13:31:07;98271.09;;;12.03;93.43
31483;BME280;18103;52.246;8.052;2022-09-27T13:33:52;98266.03;;;12.13;92.59
31483;BME280;18103;52.246;8.052;2022-09-27T13:41:23;98276.47;;;12.44;89.42
31483;BME280;18103;52.246;8.052;2022-09-27T13:46:23;98279.22;;;12.38;89.97
31483;BME280;18103;52.246;8.052;2022-09-27T13:48:55;98282.63;;;12.45;89.76
31483;BME280;18103;52.246;8.052;2022-09-27T13:54:35;98279.53;;;12.18;90.18
31483;BME280;18103;52.246;8.052;2022-09-27T13:57:03;98278.97;;;12.28;90.41
31483;BME280;18103;52.246;8.052;2022-09-27T13:59:40;98277.56;;;12.25;90.70
31483;BME280;18103;52.246;8.052;2022-09-27T14:04:42;98286.56;;;12.13;91.00
31483;BME280;18103;52.246;8.052;2022-09-27T14:07:16;98279.34;;;12.01;91.21
31483;BME280;18103;52.246;8.052;2022-09-27T14:09:45;98288.44;;;12.12;90.96
31483;BME280;18103;52.246;8.052;2022-09-27T14:12:18;98278.53;;;12.01;90.73
31483;BME280;18103;52.246;8.052;2022-09-27T14:14:45;98292.53;;;11.96;90.56
31483;BME280;18103;52.246;8.052;2022-09-27T14:17:14;98293.69;;;11.89;91.71
31483;BME280;18103;52.246;8.052;2022-09-27T14:19:41;98305.84;;;11.48;92.73
31483;BME280;18103;52.246;8.052;2022-09-27T14:22:13;98303.16;;;11.30;92.84
31483;BME280;18103;52.246;8.052;2022-09-27T14:27:19;98316.25;;;10.88;93.40
31483;BME280;18103;52.246;8.052;2022-09-27T14:32:20;98309.84;;;10.71;93.95
31483;BME280;18103;52.246;8.052;2022-09-27T14:37:32;98304.81;;;10.56;94.02
31483;BME280;18103;52.246;8.052;2022-09-27T14:40:05;98307.44;;;10.63;94.05
31483;BME280;18103;52.246;8.052;2022-09-27T14:42:34;98308.38;;;10.44;94.73
31483;BME280;18103;52.246;8.052;2022-09-27T14:45:13;98306.06;;;10.54;94.59
31483;BME280;18103;52.246;8.052;2022-09-27T14:47:47;98303.81;;;10.51;95.39
31483;BME280;18103;52.246;8.052;2022-09-27T14:50:23;98305.03;;;10.55;95.91
31483;BME280;18103;52.246;8.052;2022-09-27T14:52:49;98313.94;;;10.67;95.74
31483;BME280;18103;52.246;8.052;2022-09-27T14:55:20;98303.91;;;10.69;96.43
31483;BME280;18103;52.246;8.052;2022-09-27T14:57:54;98304.44;;;10.78;96.41
31483;BME280;18103;52.246;8.052;2022-09-27T15:00:23;98305.59;;;10.88;97.03
31483;BME280;18103;52.246;8.052;2022-09-27T15:02:52;98301.03;;;10.95;96.44
31483;BME280;18103;52.246;8.052;2022-09-27T15:05:22;98305.13;;;10.91;96.76
31483;BME280;18103;52.246;8.052;2022-09-27T15:07:48;98306.72;;;10.99;96.34
31483;BME280;18103;52.246;8.052;2022-09-27T15:10:17;98305.47;;;11.02;97.27
31483;BME280;18103;52.246;8.052;2022-09-27T15:12:48;98303.63;;;11.02;97.12
31483;BME280;18103;52.246;8.052;2022-09-27T15:15:18;98304.75;;;11.13;96.40
31483;BME280;18103;52.246;8.052;2022-09-27T15:17:49;98308.31;;;11.07;97.25
31483;BME280;18103;52.246;8.052;2022-09-27T15:20:23;98307.03;;;11.09;97.27
31483;BME280;18103;52.246;8.052;2022-09-27T15:22:56;98299.84;;;11.10;97.64
31483;BME280;18103;52.246;8.052;2022-09-27T15:25:42;98313.19;;;11.10;97.33
31483;BME280;18103;52.246;8.052;2022-09-27T15:28:21;98307.03;;;11.09;97.90
31483;BME280;18103;52.246;8.052;2022-09-27T15:30:57;98301.34;;;11.06;97.63
31483;BME280;18103;52.246;8.052;2022-09-27T15:33:28;98298.81;;;11.11;97.45
31483;BME280;18103;52.246;8.052;2022-09-27T15:35:58;98302.84;;;11.20;97.22
31483;BME280;18103;52.246;8.052;2022-09-27T15:38:33;98300.03;;;11.15;97.49
31483;BME280;18103;52.246;8.052;2022-09-27T15:41:08;98300.66;;;11.10;97.75
31483;BME280;18103;52.246;8.052;2022-09-27T15:43:47;98311.56;;;11.09;97.87
31483;BME280;18103;52.246;8.052;2022-09-27T15:46:39;98318.66;;;10.96;97.91
31483;BME280;18103;52.246;8.052;2022-09-27T15:51:43;98324.06;;;10.83;98.53